Patrice Mcallister — WDG2567 — position and weather

sailwx.info

Track history (hours):
 
Tides and Currents Weather Stations Pressure Air Temp Water Temp Dewpoint Dewpoint Depression Visibility Wind Speed Wind Dir Waves Ship Positions

Patrice Mcallister

Owner: McAllister Towing & Transportation Co. Inc., Staten Island, NY. More information available from US FCC via Universal Licensing System and Coast Guard Vessel Documentation Center.

Last reported at 2018-Jul-14 17:23 UTC. Time now 2018-Jul-20 02:52 UTC.
Position N 27°04' W 079°59'.

Length 33 m; draft 3.7 m.

Type: Towing. MMSI: 367516950.

Date/timePositionNaut miles runAvg speedWind from/ knotsBaromVisibWave heightAir tempDewpointWater temp
2018-Jul-14 17:23N 27°04' W 079°59'3 8.4
2018-Jul-14 17:00N 27°01' W 079°59'4 8.6
2018-Jul-14 16:30N 26°57' W 079°59'4 8.5
2018-Jul-14 16:00N 26°53' W 079°59'4 8.0
2018-Jul-14 15:30N 26°49' W 079°59'510.1
2018-Jul-14 14:58N 26°44' W 079°58'5 9.9
2018-Jul-14 14:30N 26°39' W 079°59'10 9.6
2018-Jul-14 13:29N 26°29' W 079°59'4 9.5
2018-Jul-14 13:00N 26°24' W 079°59'5 9.5
2018-Jul-14 12:30N 26°20' W 079°59'5 9.4
2018-Jul-14 12:00N 26°15' W 079°59'5 9.8
2018-Jul-14 11:30N 26°10' W 079°58'5 9.8
2018-Jul-14 11:00N 26°05' W 079°57'510.8
2018-Jul-14 10:30N 26°00' W 079°55'611.4
2018-Jul-14 10:00N 25°55' W 079°55'611.9
2018-Jul-14 09:30N 25°49' W 079°54'612.1
2018-Jul-14 09:00N 25°43' W 079°55'612.6
2018-Jul-14 08:30N 25°36' W 079°55'612.7
2018-Jul-14 08:00N 25°30' W 079°55'612.3
2018-Jul-14 07:30N 25°24' W 079°54'  
Track history (hours):
 
Tides and Currents Weather Stations Pressure Air Temp Water Temp Dewpoint Dewpoint Depression Visibility Wind Speed Wind Dir Waves Ship Positions

Patrice Mcallister

Owner: McAllister Towing & Transportation Co. Inc., Staten Island, NY. More information available from US FCC via Universal Licensing System and Coast Guard Vessel Documentation Center.

Last reported at 2018-Jul-14 17:23 UTC. Time now 2018-Jul-20 02:52 UTC.
Position N 27°04' W 079°59'.

Length 33 m; draft 3.7 m.

Type: Towing. MMSI: 367516950.

Date/timePositionNaut miles runAvg speedWind from/ knotsBaromVisibWave heightAir tempDewpointWater temp
2018-Jul-14 17:23N 27°04' W 079°59'3 8.4
2018-Jul-14 17:00N 27°01' W 079°59'4 8.6
2018-Jul-14 16:30N 26°57' W 079°59'4 8.5
2018-Jul-14 16:00N 26°53' W 079°59'4 8.0
2018-Jul-14 15:30N 26°49' W 079°59'510.1
2018-Jul-14 14:58N 26°44' W 079°58'5 9.9
2018-Jul-14 14:30N 26°39' W 079°59'10 9.6
2018-Jul-14 13:29N 26°29' W 079°59'4 9.5
2018-Jul-14 13:00N 26°24' W 079°59'5 9.5
2018-Jul-14 12:30N 26°20' W 079°59'5 9.4
2018-Jul-14 12:00N 26°15' W 079°59'5 9.8
2018-Jul-14 11:30N 26°10' W 079°58'5 9.8
2018-Jul-14 11:00N 26°05' W 079°57'510.8
2018-Jul-14 10:30N 26°00' W 079°55'611.4
2018-Jul-14 10:00N 25°55' W 079°55'611.9
2018-Jul-14 09:30N 25°49' W 079°54'612.1
2018-Jul-14 09:00N 25°43' W 079°55'612.6
2018-Jul-14 08:30N 25°36' W 079°55'612.7
2018-Jul-14 08:00N 25°30' W 079°55'612.3
2018-Jul-14 07:30N 25°24' W 079°54'  

Dump ship's entire track history